Time;durP1;ratioP1;P1;durP2;ratioP2;P2;SDS_P1;SDS_P2;PMS_P1;PMS_P2;Temp;Humidity;BMP_temperature;BMP_pressure;BME280_temperature;BME280_humidity;BME280_pressure;Samples;Min_cycle;Max_cycle;Signal;HPM_P1;HPM_P2
2021/01/27 00:02:11;;;;;;;3.50;0.73;;;19.90;44.60;;;;;;6262913;28;20029;-54
2021/01/27 00:05:19;;;;;;;1.52;0.63;;;20.00;44.70;;;;;;6222286;28;20053;-52
2021/01/27 00:08:22;;;;;;;0.93;0.68;;;19.90;44.50;;;;;;6242417;28;20104;-50
2021/01/27 00:11:22;;;;;;;1.50;1.00;;;19.90;44.50;;;;;;6247642;28;20056;-50
2021/01/27 00:14:23;;;;;;;0.75;0.63;;;19.90;44.60;;;;;;6265576;28;20024;-52
2021/01/27 00:17:24;;;;;;;1.27;0.60;;;19.90;45.30;;;;;;6264464;28;20075;-49
2021/01/27 00:20:27;;;;;;;1.45;0.65;;;19.90;44.60;;;;;;6250957;28;20025;-52
2021/01/27 00:23:27;;;;;;;1.55;0.65;;;19.90;44.60;;;;;;6264151;28;20436;-49
2021/01/27 00:26:28;;;;;;;1.52;0.60;;;19.90;44.50;;;;;;6267250;28;20127;-50
2021/01/27 00:29:28;;;;;;;1.13;0.60;;;19.90;44.70;;;;;;6265058;28;20470;-49
2021/01/27 00:32:29;;;;;;;1.13;0.70;;;19.90;44.80;;;;;;6265818;28;20087;-49
2021/01/27 00:35:36;;;;;;;1.02;0.60;;;19.90;44.60;;;;;;6267612;28;20037;-55
2021/01/27 00:38:36;;;;;;;1.10;0.90;;;19.90;44.50;;;;;;6255274;28;20032;-53
2021/01/27 00:41:37;;;;;;;1.42;0.70;;;19.90;44.60;;;;;;6243764;28;20056;-52
2021/01/27 00:44:38;;;;;;;2.38;0.60;;;19.90;45.40;;;;;;6263755;28;20083;-51
2021/01/27 00:47:38;;;;;;;1.73;0.85;;;19.90;44.60;;;;;;6264121;28;20021;-49
2021/01/27 00:50:39;;;;;;;0.73;0.60;;;19.90;44.70;;;;;;6243239;28;20068;-48
2021/01/27 00:53:41;;;;;;;4.30;0.85;;;19.90;44.80;;;;;;6246478;28;20028;-49
2021/01/27 00:56:42;;;;;;;1.17;0.75;;;19.90;44.70;;;;;;6243557;28;20140;-50
2021/01/27 00:59:42;;;;;;;0.70;0.60;;;19.90;44.80;;;;;;6246860;28;20026;-48
2021/01/27 01:02:43;;;;;;;1.23;0.75;;;19.90;44.70;;;;;;6228885;28;20387;-48
2021/01/27 01:05:45;;;;;;;0.80;0.60;;;19.90;44.70;;;;;;6235088;28;20104;-48
2021/01/27 01:08:45;;;;;;;1.80;0.70;;;19.90;44.80;;;;;;6232585;28;20087;-47
2021/01/27 01:11:46;;;;;;;2.72;0.68;;;19.90;44.90;;;;;;6243753;28;20334;-49
2021/01/27 01:14:47;;;;;;;1.10;0.70;;;19.90;44.90;;;;;;6245446;28;20366;-46
2021/01/27 01:17:48;;;;;;;1.48;0.65;;;19.90;44.80;;;;;;6244137;28;20040;-48
2021/01/27 01:20:49;;;;;;;1.25;0.60;;;19.90;44.80;;;;;;6244612;28;20475;-49
2021/01/27 01:23:49;;;;;;;0.95;0.60;;;19.90;44.80;;;;;;6245897;28;20028;-48
2021/01/27 01:26:50;;;;;;;1.40;0.70;;;19.90;44.80;;;;;;6242238;28;20033;-47
2021/01/27 01:29:51;;;;;;;0.65;0.60;;;19.90;44.80;;;;;;6245925;28;20029;-48
2021/01/27 01:32:56;;;;;;;1.15;0.50;;;19.90;44.80;;;;;;6242781;28;20028;-48
2021/01/27 01:35:57;;;;;;;;;;;19.90;44.90;;;;;;6262086;28;20524;-48
2021/01/27 01:38:58;;;;;;;0.63;0.60;;;19.90;44.80;;;;;;6262127;28;19917;-50
2021/01/27 01:41:59;;;;;;;1.88;0.73;;;19.90;45.00;;;;;;6243055;28;20041;-49
2021/01/27 01:44:59;;;;;;;0.90;0.68;;;19.90;45.00;;;;;;6244157;28;20033;-48
2021/01/27 01:48:06;;;;;;;0.65;0.60;;;19.80;44.80;;;;;;6242266;28;20022;-48
2021/01/27 01:51:10;;;;;;;0.55;0.47;;;19.80;44.80;;;;;;6245032;28;20453;-48
2021/01/27 01:54:21;;;;;;;0.90;0.50;;;19.80;44.80;;;;;;6244678;28;20453;-48
2021/01/27 01:57:28;;;;;;;0.75;0.50;;;19.80;44.90;;;;;;6224026;28;20057;-47
2021/01/27 02:00:31;;;;;;;0.80;0.60;;;19.90;44.90;;;;;;6242233;28;20390;-47
2021/01/27 02:03:33;;;;;;;0.50;0.50;;;19.90;44.70;;;;;;6242498;28;20444;-48
2021/01/27 02:06:34;;;;;;;0.60;0.60;;;19.80;44.90;;;;;;6249164;28;20088;-46
2021/01/27 02:09:34;;;;;;;0.70;0.52;;;19.80;44.90;;;;;;6245194;28;20034;-48
2021/01/27 02:13:02;;;;;;;0.85;0.65;;;19.80;45.60;;;;;;6242059;28;20030;-47
2021/01/27 02:16:06;;;;;;;0.75;0.57;;;19.80;44.80;;;;;;6243931;28;20053;-48
2021/01/27 02:19:07;;;;;;;0.52;0.50;;;19.80;44.90;;;;;;6227582;28;20025;-46
2021/01/27 02:22:37;;;;;;;0.70;0.55;;;19.80;45.00;;;;;;6266928;28;20029;-46
2021/01/27 02:26:10;;;;;;;1.42;0.75;;;19.80;45.10;;;;;;6253749;28;20036;-47
2021/01/27 02:29:41;;;;;;;0.43;0.40;;;19.80;44.90;;;;;;6244174;28;20030;-47
2021/01/27 02:33:13;;;;;;;0.90;0.50;;;19.80;45.00;;;;;;6227858;28;20025;-46
2021/01/27 02:36:39;;;;;;;1.05;0.68;;;19.80;44.90;;;;;;6243465;28;20025;-47
2021/01/27 02:39:53;;;;;;;1.67;0.50;;;19.80;44.80;;;;;;6247445;28;20485;-49
2021/01/27 02:43:17;;;;;;;0.75;0.60;;;19.80;45.00;;;;;;6246488;28;20060;-49
2021/01/27 02:46:51;;;;;;;0.88;0.63;;;19.80;44.80;;;;;;6260733;28;20033;-49
2021/01/27 02:49:59;;;;;;;0.52;0.50;;;19.80;44.90;;;;;;6224643;28;20037;-46
2021/01/27 02:53:12;;;;;;;0.68;0.55;;;19.80;45.10;;;;;;6245845;28;20537;-48
2021/01/27 02:56:34;;;;;;;1.45;0.60;;;19.80;45.00;;;;;;6248036;28;20029;-48
2021/01/27 02:59:43;;;;;;;1.30;0.60;;;19.80;45.00;;;;;;6270326;28;20025;-52
2021/01/27 03:02:54;;;;;;;0.93;0.60;;;19.80;44.90;;;;;;6266689;28;20459;-50
2021/01/27 03:06:02;;;;;;;1.33;0.45;;;19.70;44.90;;;;;;6257753;28;20116;-48
2021/01/27 03:09:12;;;;;;;1.15;0.60;;;19.80;45.00;;;;;;6247221;28;20112;-48
2021/01/27 03:12:13;;;;;;;0.93;0.70;;;19.80;45.00;;;;;;6255417;28;20029;-48
2021/01/27 03:15:15;;;;;;;0.70;0.40;;;19.80;45.00;;;;;;6244957;28;20388;-49
2021/01/27 03:18:27;;;;;;;0.60;0.52;;;19.70;45.00;;;;;;6221024;28;20533;-49
2021/01/27 03:21:34;;;;;;;0.90;0.50;;;19.70;44.80;;;;;;6235297;28;20021;-48
2021/01/27 03:24:41;;;;;;;0.52;0.50;;;19.70;45.20;;;;;;6245201;28;20088;-48
2021/01/27 03:27:58;;;;;;;0.70;0.50;;;19.70;44.90;;;;;;6243670;28;20506;-51
2021/01/27 03:30:58;;;;;;;0.52;0.50;;;19.70;45.00;;;;;;6255959;28;20113;-49
2021/01/27 03:34:09;;;;;;;0.85;0.60;;;19.80;45.10;;;;;;6244832;28;20577;-51
2021/01/27 03:37:18;;;;;;;0.52;0.52;;;19.70;45.00;;;;;;6246835;28;20036;-48
2021/01/27 03:40:20;;;;;;;0.77;0.70;;;19.70;45.00;;;;;;6245317;28;20313;-48
2021/01/27 03:43:28;;;;;;;1.13;0.60;;;19.80;45.60;;;;;;6247232;28;20022;-47
2021/01/27 03:46:35;;;;;;;0.93;0.40;;;19.70;45.00;;;;;;6228492;28;20033;-47
2021/01/27 03:49:49;;;;;;;1.27;0.50;;;19.70;44.70;;;;;;6267352;28;20039;-48
2021/01/27 03:53:01;;;;;;;0.63;0.57;;;19.70;44.90;;;;;;6252629;28;20525;-51
2021/01/27 03:56:29;;;;;;;0.50;0.50;;;19.70;44.80;;;;;;6244021;28;20434;-47
2021/01/27 03:59:30;;;;;;;0.85;0.50;;;19.70;44.60;;;;;;6244792;28;20712;-49
2021/01/27 04:02:30;;;;;;;1.10;0.73;;;19.70;45.10;;;;;;6247039;28;20386;-49
2021/01/27 04:05:31;;;;;;;0.88;0.50;;;19.70;45.10;;;;;;6237212;28;20034;-47
2021/01/27 04:08:32;;;;;;;0.60;0.55;;;19.70;45.00;;;;;;6243730;28;20056;-47
2021/01/27 04:11:32;;;;;;;0.57;0.50;;;19.70;44.80;;;;;;6261282;28;20049;-48
2021/01/27 04:14:35;;;;;;;0.63;0.52;;;19.70;45.20;;;;;;6268812;28;20032;-50
2021/01/27 04:17:36;;;;;;;0.73;0.65;;;19.70;45.00;;;;;;6265616;28;20563;-51
2021/01/27 04:20:37;;;;;;;0.85;0.50;;;19.70;45.00;;;;;;6268813;28;20021;-50
2021/01/27 04:23:38;;;;;;;0.65;0.57;;;19.70;45.10;;;;;;6265886;28;20379;-49
2021/01/27 04:26:39;;;;;;;1.85;0.68;;;19.70;45.20;;;;;;6265458;28;20049;-53
2021/01/27 04:29:39;;;;;;;0.50;0.50;;;19.60;45.10;;;;;;6268774;28;20035;-50
2021/01/27 04:32:40;;;;;;;0.75;0.52;;;19.70;45.30;;;;;;6258354;28;20505;-50
2021/01/27 04:35:41;;;;;;;0.98;0.60;;;19.60;45.10;;;;;;6242807;28;20059;-54
2021/01/27 04:38:41;;;;;;;0.63;0.50;;;19.60;45.20;;;;;;6258599;28;20088;-52
2021/01/27 04:41:43;;;;;;;1.08;0.60;;;19.60;45.10;;;;;;6255940;28;20403;-53
2021/01/27 04:44:43;;;;;;;0.63;0.60;;;19.60;45.10;;;;;;6267615;28;20498;-53
2021/01/27 04:47:50;;;;;;;0.52;0.52;;;19.60;44.90;;;;;;6258358;28;20029;-49
2021/01/27 04:51:00;;;;;;;1.13;0.70;;;19.60;45.10;;;;;;6259674;28;20032;-49
2021/01/27 04:54:34;;;;;;;0.77;0.60;;;19.60;45.10;;;;;;6252314;28;20064;-53
2021/01/27 04:57:35;;;;;;;0.70;0.57;;;19.60;45.00;;;;;;6229662;28;20029;-51
2021/01/27 05:00:50;;;;;;;0.95;0.57;;;19.60;44.80;;;;;;6254649;28;20017;-52
2021/01/27 05:04:35;;;;;;;2.85;0.77;;;19.60;45.20;;;;;;6249766;28;20030;-51
2021/01/27 05:07:45;;;;;;;0.60;0.50;;;19.60;45.10;;;;;;6183209;28;20093;-51
2021/01/27 05:11:04;;;;;;;0.80;0.60;;;19.60;44.50;;;;;;6233916;28;20159;-50
2021/01/27 05:14:07;;;;;;;1.00;0.70;;;19.70;44.40;;;;;;6248842;28;20078;-50
2021/01/27 05:17:11;;;;;;;0.93;0.60;;;19.70;44.30;;;;;;6254458;28;20021;-48
2021/01/27 05:20:14;;;;;;;0.57;0.50;;;19.70;44.30;;;;;;6256437;28;20029;-55
2021/01/27 05:23:16;;;;;;;0.70;0.60;;;19.70;44.30;;;;;;6281978;28;20417;-49
2021/01/27 05:26:20;;;;;;;1.38;0.55;;;19.70;44.30;;;;;;6253639;28;20060;-54
2021/01/27 05:29:26;;;;;;;0.75;0.68;;;19.80;44.40;;;;;;6246136;28;20053;-52
2021/01/27 05:32:27;;;;;;;0.60;0.50;;;19.80;44.40;;;;;;6266983;28;20029;-49
2021/01/27 05:35:36;;;;;;;0.77;0.40;;;19.80;44.40;;;;;;6255375;28;20065;-51
2021/01/27 05:38:39;;;;;;;0.55;0.55;;;19.80;44.40;;;;;;6249717;28;20029;-49
2021/01/27 05:41:43;;;;;;;0.60;0.57;;;19.80;44.40;;;;;;6256059;28;20021;-54
2021/01/27 05:44:43;;;;;;;2.42;0.70;;;19.80;44.40;;;;;;6234725;28;20024;-50
2021/01/27 05:47:44;;;;;;;0.80;0.60;;;19.80;44.40;;;;;;6267592;28;20048;-50
2021/01/27 05:50:44;;;;;;;0.95;0.60;;;19.80;44.50;;;;;;6267724;28;20060;-52
2021/01/27 05:53:45;;;;;;;0.55;0.50;;;19.90;44.50;;;;;;6231305;28;20486;-49
2021/01/27 05:56:46;;;;;;;0.60;0.60;;;19.90;44.60;;;;;;6251701;28;20033;-54
2021/01/27 05:59:48;;;;;;;0.60;0.55;;;19.90;44.60;;;;;;6257706;28;20036;-48
2021/01/27 06:02:50;;;;;;;0.50;0.50;;;19.90;44.50;;;;;;6260611;28;20028;-52
2021/01/27 06:05:52;;;;;;;0.50;0.50;;;19.90;44.60;;;;;;6240925;28;20108;-51
2021/01/27 06:08:56;;;;;;;0.57;0.47;;;19.90;44.60;;;;;;6246561;28;20025;-50
2021/01/27 06:12:05;;;;;;;0.80;0.70;;;19.90;44.60;;;;;;6267876;28;20404;-49
2021/01/27 06:15:06;;;;;;;1.13;0.70;;;19.90;44.50;;;;;;6259659;28;20041;-48
2021/01/27 06:18:24;;;;;;;0.60;0.60;;;20.00;44.40;;;;;;6256855;28;20026;-49
2021/01/27 06:21:57;;;;;;;1.08;0.77;;;20.00;44.40;;;;;;6255424;28;20025;-49
2021/01/27 06:25:51;;;;;;;1.45;0.70;;;20.00;44.40;;;;;;6231166;28;20041;-48
2021/01/27 06:29:03;;;;;;;1.00;0.60;;;20.00;44.40;;;;;;6192278;28;20041;-53
2021/01/27 06:32:38;;;;;;;0.70;0.50;;;20.00;44.40;;;;;;6256037;28;20108;-49
2021/01/27 06:36:03;;;;;;;0.68;0.60;;;20.00;44.30;;;;;;6253177;28;20041;-50
2021/01/27 06:39:34;;;;;;;1.48;0.63;;;20.00;44.30;;;;;;6245425;28;20379;-49
2021/01/27 06:42:41;;;;;;;2.03;0.93;;;20.00;44.30;;;;;;6249696;28;20025;-51
2021/01/27 06:45:54;;;;;;;1.05;0.60;;;20.10;44.40;;;;;;6261024;28;20100;-51
2021/01/27 06:49:01;;;;;;;0.88;0.80;;;20.10;44.40;;;;;;6267527;28;20033;-50
2021/01/27 06:52:17;;;;;;;0.82;0.70;;;20.10;44.50;;;;;;6259724;28;20100;-49
2021/01/27 06:55:42;;;;;;;0.93;0.63;;;20.10;44.50;;;;;;6243122;28;20029;-50
2021/01/27 06:59:21;;;;;;;1.95;0.75;;;20.10;44.50;;;;;;6256319;28;20274;-49
2021/01/27 07:02:28;;;;;;;0.80;0.60;;;20.10;44.50;;;;;;6251326;28;20037;-49
2021/01/27 07:05:57;;;;;;;1.85;0.88;;;20.10;44.50;;;;;;6258112;28;20025;-51
2021/01/27 07:09:23;;;;;;;0.88;0.73;;;20.10;44.50;;;;;;6265357;28;20033;-51
2021/01/27 07:12:26;;;;;;;1.95;0.85;;;20.10;44.60;;;;;;6256017;28;20029;-48
2021/01/27 07:15:51;;;;;;;0.47;0.47;;;20.10;44.60;;;;;;6254241;28;20021;-49
2021/01/27 07:19:23;;;;;;;0.60;0.60;;;20.10;44.50;;;;;;6261630;28;20049;-53
2021/01/27 07:22:30;;;;;;;0.68;0.60;;;20.10;44.60;;;;;;6255436;28;20032;-49
2021/01/27 07:25:54;;;;;;;0.88;0.55;;;20.10;44.50;;;;;;6255476;28;20032;-51
2021/01/27 07:29:03;;;;;;;5.38;2.17;;;20.10;44.50;;;;;;6243008;28;20368;-52
2021/01/27 07:32:11;;;;;;;31.10;16.13;;;20.00;43.60;;;;;;6256100;28;20025;-50
2021/01/27 07:35:23;;;;;;;27.00;14.13;;;19.60;38.30;;;;;;6260963;28;20045;-50
2021/01/27 07:38:28;;;;;;;19.00;10.77;;;19.40;39.50;;;;;;6254800;28;20402;-62
2021/01/27 07:41:42;;;;;;;16.10;7.97;;;19.60;40.70;;;;;;6257555;28;20108;-61
2021/01/27 07:44:47;;;;;;;15.50;6.18;;;19.80;41.90;;;;;;6257624;28;20513;-64
2021/01/27 07:47:57;;;;;;;8.83;5.20;;;20.00;41.90;;;;;;6258160;28;20025;-61
2021/01/27 07:51:16;;;;;;;17.63;5.10;;;20.10;42.60;;;;;;6245366;28;20280;-55
2021/01/27 07:54:27;;;;;;;5.93;3.45;;;20.20;42.90;;;;;;6224428;28;20036;-61
2021/01/27 07:57:44;;;;;;;10.88;3.60;;;20.20;42.80;;;;;;6260946;28;20105;-59
2021/01/27 08:00:50;;;;;;;15.13;4.05;;;20.30;42.90;;;;;;6250013;28;20475;-59
2021/01/27 08:04:01;;;;;;;9.95;4.10;;;20.20;43.10;;;;;;6270004;28;20411;-56
2021/01/27 08:07:02;;;;;;;12.95;3.80;;;20.20;42.90;;;;;;6252820;28;20033;-58
2021/01/27 08:10:32;;;;;;;16.85;3.55;;;20.20;43.00;;;;;;6244806;28;20029;-58
2021/01/27 08:13:36;;;;;;;8.68;2.88;;;20.20;42.90;;;;;;6268738;28;20029;-59
2021/01/27 08:16:43;;;;;;;11.35;2.70;;;20.30;43.00;;;;;;6264484;28;20395;-62
2021/01/27 08:20:03;;;;;;;13.75;2.75;;;20.40;43.10;;;;;;6227413;28;20517;-49
2021/01/27 08:23:29;;;;;;;12.60;2.67;;;20.40;43.20;;;;;;6259788;28;20029;-54
2021/01/27 08:26:42;;;;;;;13.13;6.70;;;20.30;43.70;;;;;;6262153;28;20044;-59
2021/01/27 08:29:54;;;;;;;11.73;4.90;;;20.10;41.40;;;;;;6243458;28;20064;-57
2021/01/27 08:33:31;;;;;;;22.30;4.10;;;20.20;42.30;;;;;;6219941;28;563827;-53
2021/01/27 08:36:32;;;;;;;59.97;6.70;;;20.20;42.10;;;;;;6247925;28;20116;-55
2021/01/27 08:39:33;;;;;;;55.30;7.38;;;20.20;42.20;;;;;;6244554;28;20064;-54
2021/01/27 08:42:53;;;;;;;63.92;7.18;;;20.30;42.30;;;;;;6247475;28;20345;-56
2021/01/27 08:45:54;;;;;;;78.10;8.65;;;20.30;42.50;;;;;;6221361;28;20029;-52
2021/01/27 08:48:58;;;;;;;83.22;8.13;;;20.30;42.80;;;;;;6262595;28;20414;-50
2021/01/27 08:51:58;;;;;;;67.82;7.93;;;20.30;42.70;;;;;;6262537;28;20025;-51
2021/01/27 08:54:59;;;;;;;66.82;7.95;;;20.30;42.90;;;;;;6244180;28;20033;-55
2021/01/27 08:58:23;;;;;;;49.05;6.40;;;20.40;43.10;;;;;;6255226;28;20032;-52
2021/01/27 09:01:23;;;;;;;51.42;7.50;;;20.40;43.10;;;;;;6224460;28;20525;-55
2021/01/27 09:04:36;;;;;;;47.65;6.93;;;20.40;43.40;;;;;;6247606;28;20033;-55
2021/01/27 09:07:59;;;;;;;41.55;6.57;;;20.40;43.30;;;;;;6245536;28;20578;-52
2021/01/27 09:11:08;;;;;;;30.65;5.35;;;20.40;43.40;;;;;;6243860;28;20363;-53
2021/01/27 09:14:15;;;;;;;37.55;6.90;;;20.40;43.50;;;;;;6263132;28;20028;-52
2021/01/27 09:17:16;;;;;;;47.28;6.38;;;20.40;43.50;;;;;;6258139;28;20083;-53
2021/01/27 09:20:25;;;;;;;26.85;5.18;;;20.40;43.40;;;;;;6256280;28;20033;-53
2021/01/27 09:23:26;;;;;;;37.17;6.07;;;20.40;43.40;;;;;;6264096;28;20025;-53
2021/01/27 09:26:42;;;;;;;31.70;6.00;;;20.40;43.50;;;;;;6244112;28;20022;-51
2021/01/27 09:29:43;;;;;;;31.27;5.20;;;20.40;43.50;;;;;;6249938;28;20041;-52
2021/01/27 09:32:43;;;;;;;34.50;5.32;;;20.40;43.60;;;;;;6260296;28;20066;-55
2021/01/27 09:36:22;;;;;;;22.27;4.25;;;20.40;43.50;;;;;;6193840;28;20037;-51
2021/01/27 09:39:48;;;;;;;38.35;5.38;;;20.50;43.60;;;;;;6094015;28;20026;-53
2021/01/27 09:42:54;;;;;;;19.15;4.57;;;20.40;43.70;;;;;;6217584;28;20053;-53
2021/01/27 09:45:54;;;;;;;16.92;3.70;;;20.40;43.80;;;;;;6232734;28;20036;-50
2021/01/27 09:48:59;;;;;;;33.05;4.13;;;20.40;43.80;;;;;;6241643;28;20033;-54
2021/01/27 09:51:59;;;;;;;12.73;4.00;;;20.40;43.80;;;;;;6267688;28;20132;-54
2021/01/27 09:55:11;;;;;;;19.95;3.70;;;20.50;43.90;;;;;;6267143;28;20025;-52
2021/01/27 09:58:12;;;;;;;16.15;3.90;;;20.40;43.80;;;;;;6245347;28;20018;-51
2021/01/27 10:01:18;;;;;;;17.95;4.13;;;20.50;43.80;;;;;;6253733;28;20021;-52
2021/01/27 10:04:49;;;;;;;17.80;3.67;;;20.40;43.90;;;;;;6254941;28;20036;-54
2021/01/27 10:07:50;;;;;;;19.02;3.90;;;20.40;43.90;;;;;;6225701;28;20149;-52
2021/01/27 10:11:20;;;;;;;14.52;3.58;;;20.40;44.00;;;;;;6242315;28;20036;-50
2021/01/27 10:14:23;;;;;;;15.75;3.55;;;20.40;44.70;;;;;;6243071;28;20038;-49
2021/01/27 10:17:28;;;;;;;15.73;3.15;;;20.40;44.00;;;;;;6249998;28;20445;-53
2021/01/27 10:20:32;;;;;;;15.32;3.63;;;20.50;44.10;;;;;;6262956;28;20025;-51
2021/01/27 10:23:47;;;;;;;18.05;3.28;;;20.50;44.10;;;;;;6251474;28;20376;-57
2021/01/27 10:27:01;;;;;;;24.17;3.53;;;20.50;44.00;;;;;;6245807;28;20048;-52
2021/01/27 10:30:30;;;;;;;15.80;2.95;;;20.50;44.20;;;;;;6254695;28;20029;-52
2021/01/27 10:33:48;;;;;;;16.70;3.08;;;20.50;44.20;;;;;;6264625;28;20045;-49
2021/01/27 10:36:48;;;;;;;9.07;2.58;;;20.50;44.20;;;;;;6232013;28;20489;-50
2021/01/27 10:40:19;;;;;;;14.15;2.83;;;20.40;44.10;;;;;;6258811;28;20032;-49
2021/01/27 10:43:20;;;;;;;19.55;2.97;;;20.40;44.20;;;;;;6254727;28;20033;-51
2021/01/27 10:46:38;;;;;;;8.77;2.50;;;20.50;44.20;;;;;;6235456;28;20029;-53
2021/01/27 10:49:48;;;;;;;6.65;2.30;;;20.50;44.10;;;;;;6236361;28;20071;-53
2021/01/27 10:52:53;;;;;;;11.23;2.28;;;20.50;44.10;;;;;;6265636;28;20058;-49
2021/01/27 10:55:55;;;;;;;11.52;2.70;;;20.60;44.00;;;;;;6250330;28;20543;-54
2021/01/27 10:58:55;;;;;;;13.57;3.20;;;20.60;44.00;;;;;;6270407;28;20417;-52
2021/01/27 11:01:56;;;;;;;18.00;3.25;;;20.60;44.10;;;;;;6216248;28;20056;-52
2021/01/27 11:04:57;;;;;;;9.68;2.60;;;20.60;44.10;;;;;;6253889;28;20033;-59
2021/01/27 11:07:59;;;;;;;17.88;2.63;;;20.60;43.90;;;;;;6271438;28;20100;-56
2021/01/27 11:11:02;;;;;;;16.13;2.67;;;20.60;44.10;;;;;;6250765;28;20160;-59
2021/01/27 11:14:05;;;;;;;8.35;2.30;;;20.60;44.20;;;;;;6248477;28;20430;-57
2021/01/27 11:17:05;;;;;;;9.80;2.47;;;20.60;44.30;;;;;;6262730;28;20034;-54
2021/01/27 11:20:07;;;;;;;11.65;2.65;;;20.60;44.30;;;;;;6253545;28;20033;-55
2021/01/27 11:23:07;;;;;;;9.57;1.90;;;20.60;44.30;;;;;;6256938;28;20450;-54
2021/01/27 11:26:08;;;;;;;8.00;2.17;;;20.60;44.60;;;;;;6261312;28;20032;-49
2021/01/27 11:29:09;;;;;;;10.85;2.10;;;20.60;44.40;;;;;;6271098;28;20033;-53
2021/01/27 11:32:10;;;;;;;10.68;2.10;;;20.60;44.50;;;;;;6267250;28;20576;-49
2021/01/27 11:35:11;;;;;;;5.47;1.98;;;20.60;44.50;;;;;;6269771;28;20037;-50
2021/01/27 11:38:12;;;;;;;8.68;2.85;;;20.60;44.50;;;;;;6263557;28;20138;-50
2021/01/27 11:41:14;;;;;;;9.93;2.10;;;20.60;44.60;;;;;;6268745;28;20541;-54
2021/01/27 11:44:15;;;;;;;5.60;2.30;;;20.60;44.60;;;;;;6232595;28;20033;-51
2021/01/27 11:47:16;;;;;;;5.80;2.05;;;20.50;44.60;;;;;;6234321;28;20166;-55
2021/01/27 11:50:22;;;;;;;7.10;2.15;;;20.50;45.30;;;;;;6244348;28;20379;-50
2021/01/27 11:53:23;;;;;;;5.45;1.95;;;20.50;44.60;;;;;;6244641;28;20399;-49
2021/01/27 11:56:24;;;;;;;9.93;2.15;;;20.50;44.60;;;;;;6244100;28;20030;-50
2021/01/27 11:59:24;;;;;;;4.57;1.65;;;20.50;44.70;;;;;;6253655;28;20528;-47
2021/01/27 12:02:25;;;;;;;8.43;2.15;;;20.50;44.60;;;;;;6230346;28;20183;-48
2021/01/27 12:05:25;;;;;;;14.40;2.65;;;20.50;44.70;;;;;;6245436;28;20092;-55
2021/01/27 12:08:32;;;;;;;13.77;1.95;;;20.60;44.60;;;;;;6241463;28;20080;-49
2021/01/27 12:11:32;;;;;;;12.40;1.70;;;20.50;44.70;;;;;;6245131;28;20040;-51
2021/01/27 12:14:34;;;;;;;6.63;1.77;;;20.60;44.70;;;;;;6244300;28;20029;-52
2021/01/27 12:17:35;;;;;;;16.30;1.73;;;20.60;44.60;;;;;;6263391;28;20100;-54
2021/01/27 12:20:37;;;;;;;3.78;1.42;;;20.60;44.70;;;;;;6244480;28;20036;-62
2021/01/27 12:23:38;;;;;;;9.95;1.95;;;20.60;44.60;;;;;;6265621;28;20029;-54
2021/01/27 12:26:39;;;;;;;5.90;2.20;;;20.70;44.60;;;;;;6261102;28;20033;-49
2021/01/27 12:29:41;;;;;;;7.47;1.65;;;20.70;44.90;;;;;;6245846;28;20049;-49
2021/01/27 12:32:43;;;;;;;14.75;2.08;;;20.70;44.70;;;;;;6249722;28;20084;-50
2021/01/27 12:35:44;;;;;;;5.20;2.28;;;20.60;44.20;;;;;;6247655;28;20380;-52
2021/01/27 12:38:44;;;;;;;9.20;2.78;;;20.50;43.10;;;;;;6260575;28;20022;-56
2021/01/27 12:41:47;;;;;;;11.48;2.58;;;20.50;42.90;;;;;;6230967;28;20021;-48
2021/01/27 12:44:47;;;;;;;4.88;1.80;;;20.60;43.30;;;;;;6245824;28;20112;-52
2021/01/27 12:47:48;;;;;;;12.38;2.00;;;20.60;43.40;;;;;;6243884;28;20030;-50
2021/01/27 12:50:48;;;;;;;3.28;1.65;;;20.60;43.50;;;;;;6247988;28;20033;-53
2021/01/27 12:53:49;;;;;;;5.22;1.73;;;20.60;43.80;;;;;;6260332;28;20057;-49
2021/01/27 12:56:50;;;;;;;9.63;1.65;;;20.60;43.80;;;;;;6246983;28;20104;-49
2021/01/27 12:59:50;;;;;;;3.33;1.75;;;20.60;43.90;;;;;;6243568;28;20026;-49
2021/01/27 13:02:52;;;;;;;3.65;1.58;;;20.60;44.00;;;;;;6253785;28;20039;-50
2021/01/27 13:05:53;;;;;;;10.27;1.92;;;20.60;44.10;;;;;;6250187;28;20034;-50
2021/01/27 13:08:54;;;;;;;5.38;1.42;;;20.60;44.10;;;;;;6242970;28;20386;-54
2021/01/27 13:11:55;;;;;;;3.60;1.50;;;20.60;44.10;;;;;;6249037;28;20071;-51
2021/01/27 13:14:55;;;;;;;4.03;1.40;;;20.60;44.20;;;;;;6255484;28;20056;-50
2021/01/27 13:17:56;;;;;;;2.83;1.42;;;20.70;44.20;;;;;;6264735;28;20504;-55
2021/01/27 13:20:56;;;;;;;4.47;1.45;;;20.70;44.40;;;;;;6240896;28;20025;-56
2021/01/27 13:23:57;;;;;;;8.75;1.65;;;20.70;43.90;;;;;;6247421;28;20029;-52
2021/01/27 13:26:57;;;;;;;3.40;1.27;;;20.70;43.90;;;;;;6224648;28;20064;-59
2021/01/27 13:29:58;;;;;;;4.68;1.60;;;20.70;43.90;;;;;;6261789;28;20040;-52
2021/01/27 13:32:59;;;;;;;2.92;1.13;;;20.70;44.10;;;;;;6252630;28;20045;-51
2021/01/27 13:35:59;;;;;;;9.63;1.73;;;20.70;44.10;;;;;;6253160;28;20029;-54
2021/01/27 13:39:00;;;;;;;9.82;1.60;;;20.70;44.00;;;;;;6258866;28;20017;-52
2021/01/27 13:42:00;;;;;;;3.70;1.45;;;20.70;44.10;;;;;;6226335;28;20017;-50
2021/01/27 13:45:06;;;;;;;11.38;1.55;;;20.60;44.80;;;;;;6250397;28;20112;-49
2021/01/27 13:48:07;;;;;;;3.60;1.60;;;20.70;44.20;;;;;;6218355;28;20025;-47
2021/01/27 13:51:08;;;;;;;4.97;1.55;;;20.70;44.20;;;;;;6233757;28;20117;-50
2021/01/27 13:54:09;;;;;;;7.40;1.75;;;20.60;44.10;;;;;;6229224;28;20037;-50
2021/01/27 13:57:09;;;;;;;9.38;1.70;;;20.60;44.20;;;;;;6240193;28;20016;-51
2021/01/27 14:00:11;;;;;;;7.28;1.35;;;20.70;43.90;;;;;;6264531;28;20544;-52
2021/01/27 14:03:12;;;;;;;6.88;1.10;;;20.70;43.90;;;;;;6263501;28;20033;-51
2021/01/27 14:06:13;;;;;;;4.18;1.30;;;20.70;44.10;;;;;;6248966;28;20036;-55
2021/01/27 14:09:13;;;;;;;2.33;1.00;;;20.70;44.00;;;;;;6245069;28;20024;-58
2021/01/27 14:12:14;;;;;;;6.63;1.35;;;20.70;44.00;;;;;;6244365;28;20018;-51
2021/01/27 14:15:17;;;;;;;5.07;1.67;;;20.70;44.10;;;;;;6244753;28;20055;-50
2021/01/27 14:18:17;;;;;;;5.10;1.20;;;20.80;44.00;;;;;;6245607;28;20072;-51
2021/01/27 14:21:18;;;;;;;1.48;1.00;;;20.80;44.00;;;;;;6244982;28;20034;-52
2021/01/27 14:24:18;;;;;;;4.60;1.42;;;20.80;44.10;;;;;;6244618;28;20083;-56
2021/01/27 14:27:19;;;;;;;6.32;1.40;;;20.80;44.10;;;;;;6250464;28;20051;-57
2021/01/27 14:30:23;;;;;;;5.20;1.20;;;20.80;44.10;;;;;;6248005;28;20374;-62
2021/01/27 14:33:23;;;;;;;3.97;1.30;;;20.80;43.90;;;;;;6251087;28;20049;-57
2021/01/27 14:36:24;;;;;;;10.70;1.20;;;21.10;43.70;;;;;;6274043;28;20032;-59
2021/01/27 14:39:24;;;;;;;1.52;1.00;;;21.20;43.50;;;;;;6269401;28;20032;-60
2021/01/27 14:42:27;;;;;;;5.35;1.25;;;21.10;43.60;;;;;;6253494;28;20030;-56
2021/01/27 14:45:29;;;;;;;2.95;1.05;;;21.30;43.50;;;;;;6259892;28;20013;-59
2021/01/27 14:48:30;;;;;;;6.03;1.33;;;21.20;43.40;;;;;;6248606;28;20082;-60
2021/01/27 14:51:31;;;;;;;1.80;0.93;;;21.30;43.40;;;;;;6257596;28;20037;-60
2021/01/27 14:54:37;;;;;;;1.73;0.90;;;21.30;43.30;;;;;;6248121;28;20022;-59
2021/01/27 14:57:38;;;;;;;2.25;1.08;;;21.20;43.40;;;;;;6249764;28;20398;-60
2021/01/27 15:00:38;;;;;;;5.80;0.88;;;21.20;43.60;;;;;;6250846;28;20026;-55
2021/01/27 15:03:39;;;;;;;3.17;1.25;;;21.30;43.50;;;;;;6252584;28;20053;-54
2021/01/27 15:06:39;;;;;;;2.45;0.98;;;21.30;43.50;;;;;;6254835;28;20028;-58
2021/01/27 15:09:40;;;;;;;5.75;1.10;;;21.20;43.50;;;;;;6268886;28;20035;-57
2021/01/27 15:12:41;;;;;;;3.05;0.98;;;21.30;43.60;;;;;;6273875;28;20456;-54
2021/01/27 15:15:41;;;;;;;15.45;1.63;;;21.20;43.50;;;;;;6249673;28;20068;-56
2021/01/27 15:18:42;;;;;;;4.45;0.98;;;21.30;43.60;;;;;;6250587;28;20141;-57
2021/01/27 15:21:42;;;;;;;11.45;1.10;;;21.40;43.40;;;;;;6246575;28;20027;-65
2021/01/27 15:24:43;;;;;;;3.25;1.20;;;21.40;43.30;;;;;;6250243;28;20107;-49
2021/01/27 15:27:44;;;;;;;4.88;0.95;;;21.40;43.30;;;;;;6260967;28;20037;-50
2021/01/27 15:30:44;;;;;;;7.85;1.40;;;21.30;43.30;;;;;;6253093;28;20055;-49
2021/01/27 15:33:45;;;;;;;9.55;1.40;;;21.40;43.20;;;;;;6248361;28;20124;-49
2021/01/27 15:36:45;;;;;;;7.32;1.10;;;21.40;43.10;;;;;;6247338;28;20033;-56
2021/01/27 15:39:46;;;;;;;9.65;1.10;;;21.40;43.10;;;;;;6249764;28;20025;-50
2021/01/27 15:42:46;;;;;;;7.28;1.13;;;21.50;43.10;;;;;;6247753;28;20018;-55
2021/01/27 15:45:49;;;;;;;9.73;1.23;;;21.50;43.20;;;;;;6256003;28;20025;-49
2021/01/27 15:48:50;;;;;;;3.33;0.93;;;21.50;43.20;;;;;;6254823;28;20346;-49
2021/01/27 15:51:51;;;;;;;11.85;1.38;;;21.50;43.30;;;;;;6250789;28;20053;-49
2021/01/27 15:54:52;;;;;;;16.05;1.10;;;21.50;43.00;;;;;;6255781;28;20018;-47
2021/01/27 15:57:53;;;;;;;7.57;0.98;;;21.40;42.90;;;;;;6235962;28;20389;-49
2021/01/27 16:00:53;;;;;;;5.90;1.52;;;21.20;43.50;;;;;;6257711;28;20025;-47
2021/01/27 16:03:54;;;;;;;9.85;1.13;;;21.10;43.90;;;;;;6245373;28;20036;-51
2021/01/27 16:06:54;;;;;;;6.72;1.30;;;21.00;43.90;;;;;;6250827;28;20478;-49
2021/01/27 16:09:55;;;;;;;8.48;1.15;;;21.00;43.90;;;;;;6263621;28;20025;-48